createdAt,value
2018-04-14T00:00:10.159Z,1003.58
2018-04-14T00:01:10.137Z,1003.59
2018-04-14T00:02:10.115Z,1003.58
2018-04-14T00:03:10.097Z,1003.61
2018-04-14T00:04:10.072Z,1003.63
2018-04-14T00:05:10.050Z,1003.63
2018-04-14T00:06:10.028Z,1003.6
2018-04-14T00:07:10.005Z,1003.64
2018-04-14T00:08:09.982Z,1003.66
2018-04-14T00:09:09.961Z,1003.68
2018-04-14T00:10:09.943Z,1003.68
2018-04-14T00:11:09.917Z,1003.67
2018-04-14T00:12:09.895Z,1003.71
2018-04-14T00:13:09.967Z,1003.71
2018-04-14T00:14:09.851Z,1003.71
2018-04-14T00:15:09.829Z,1003.73
2018-04-14T00:16:09.806Z,1003.73
2018-04-14T00:17:09.786Z,1003.75
2018-04-14T00:18:09.762Z,1003.72
2018-04-14T00:19:09.740Z,1003.76
2018-04-14T00:20:09.722Z,1003.77
2018-04-14T00:21:09.696Z,1003.78
2018-04-14T00:22:09.675Z,1003.76
2018-04-14T00:23:09.652Z,1003.8
2018-04-14T00:24:09.633Z,1003.86
2018-04-14T00:25:09.609Z,1003.84
2018-04-14T00:26:09.585Z,1003.87
2018-04-14T00:27:09.562Z,1003.86
2018-04-14T00:28:09.542Z,1003.92
2018-04-14T00:29:09.518Z,1003.86
2018-04-14T00:30:09.497Z,1003.85
2018-04-14T00:31:09.520Z,1003.83
2018-04-14T00:32:09.458Z,1003.8
2018-04-14T00:33:09.432Z,1003.82
2018-04-14T00:34:09.410Z,1003.84
2018-04-14T00:35:09.387Z,1003.89
2018-04-14T00:36:09.366Z,1003.89
2018-04-14T00:37:09.344Z,1003.91
2018-04-14T00:38:09.321Z,1003.93
2018-04-14T00:39:09.299Z,1003.95
2018-04-14T00:40:09.277Z,1003.97
2018-04-14T00:41:09.256Z,1003.98
2018-04-14T00:42:09.234Z,1004
2018-04-14T00:43:09.212Z,1003.98
2018-04-14T00:44:09.191Z,1003.97
2018-04-14T00:45:09.168Z,1003.99
2018-04-14T00:46:09.148Z,1003.98
2018-04-14T00:47:09.126Z,1004
2018-04-14T00:48:09.112Z,1003.99
2018-04-14T00:49:09.081Z,1004.02
2018-04-14T00:50:09.065Z,1003.96
2018-04-14T00:51:09.038Z,1003.97
2018-04-14T00:52:09.015Z,1004.01
2018-04-14T00:53:08.996Z,1004.01
2018-04-14T00:54:08.975Z,1004.03
2018-04-14T00:55:08.950Z,1004.06
2018-04-14T00:56:08.929Z,1004.06
2018-04-14T00:57:08.909Z,1004.1
2018-04-14T00:58:08.892Z,1004.06
2018-04-14T00:59:08.865Z,1004.07
2018-04-14T01:00:08.844Z,1004.08
2018-04-14T01:01:08.823Z,1004.08
2018-04-14T01:02:08.799Z,1004.12
2018-04-14T01:03:08.778Z,1004.08
2018-04-14T01:04:08.757Z,1004.1
2018-04-14T01:05:08.735Z,1004.11
2018-04-14T01:06:08.715Z,1004.12
2018-04-14T01:07:08.692Z,1004.13
2018-04-14T01:08:08.671Z,1004.13
2018-04-14T01:09:08.650Z,1004.12
2018-04-14T01:10:08.629Z,1004.1
2018-04-14T01:11:08.607Z,1004.15
2018-04-14T01:12:08.584Z,1004.1
2018-04-14T01:13:08.564Z,1004.12
2018-04-14T01:14:08.542Z,1004.09
2018-04-14T01:15:08.520Z,1004.09
2018-04-14T01:16:08.499Z,1004.07
2018-04-14T01:17:08.478Z,1004.11
2018-04-14T01:18:08.455Z,1004.06
2018-04-14T01:19:08.434Z,1004.04
2018-04-14T01:20:08.418Z,1004.07
2018-04-14T01:21:08.390Z,1004.05
2018-04-14T01:22:08.369Z,1004.04
2018-04-14T01:23:08.347Z,1004.06
2018-04-14T01:24:08.327Z,1004.09
2018-04-14T01:25:08.304Z,1004.07
2018-04-14T01:26:08.282Z,1004.06
2018-04-14T01:27:08.261Z,1003.98
2018-04-14T01:28:08.239Z,1003.99
2018-04-14T01:29:08.216Z,1003.98
2018-04-14T01:30:08.199Z,1004
2018-04-14T01:31:08.175Z,1003.99
2018-04-14T01:32:08.155Z,1003.96
2018-04-14T01:33:08.131Z,1004
2018-04-14T01:34:08.109Z,1004.04
2018-04-14T01:35:08.089Z,1004.03
2018-04-14T01:36:08.066Z,1004.04
2018-04-14T01:37:08.051Z,1004.08
2018-04-14T01:38:08.022Z,1004.05
2018-04-14T01:39:08.001Z,1004.06
2018-04-14T01:40:07.979Z,1004.06
2018-04-14T01:41:07.958Z,1004.08
2018-04-14T01:42:07.936Z,1004.16
2018-04-14T01:43:07.914Z,1004.13
2018-04-14T01:44:07.893Z,1004.12
2018-04-14T01:45:07.917Z,1004.14
2018-04-14T01:46:07.849Z,1004.13
2018-04-14T01:47:07.827Z,1004.14
2018-04-14T01:48:07.806Z,1004.11
2018-04-14T01:49:07.783Z,1004.07
2018-04-14T01:50:07.763Z,1004.05
2018-04-14T01:51:07.741Z,1004.09
2018-04-14T01:52:07.719Z,1004.05
2018-04-14T01:53:07.697Z,1004.02
2018-04-14T01:54:07.776Z,1003.97
2018-04-14T01:55:07.654Z,1004
2018-04-14T01:56:07.633Z,1004
2018-04-14T01:57:07.611Z,1003.98
2018-04-14T01:58:07.588Z,1004.03
2018-04-14T01:59:07.567Z,1004.02
2018-04-14T02:00:07.545Z,1004.06
2018-04-14T02:01:07.524Z,1004.03
2018-04-14T02:02:07.502Z,1004.06
2018-04-14T02:03:07.480Z,1004.06
2018-04-14T02:04:07.464Z,1004.05
2018-04-14T02:05:07.436Z,1004.04
2018-04-14T02:06:07.415Z,1004.02
2018-04-14T02:07:07.393Z,1004.02
2018-04-14T02:08:07.373Z,1004.01
2018-04-14T02:09:07.349Z,1004.04
2018-04-14T02:10:07.328Z,1003.96
2018-04-14T02:11:07.306Z,1003.98
2018-04-14T02:12:07.283Z,1004
2018-04-14T02:13:07.261Z,1003.99
2018-04-14T02:14:07.240Z,1004.01
2018-04-14T02:15:07.219Z,1004.02
2018-04-14T02:16:07.195Z,1004.01
2018-04-14T02:17:07.174Z,1004.03
2018-04-14T02:18:07.153Z,1004.03
2018-04-14T02:19:07.131Z,1004
2018-04-14T02:20:07.109Z,1004.04
2018-04-14T02:21:07.087Z,1004.03
2018-04-14T02:22:07.065Z,1004.03
2018-04-14T02:23:07.048Z,1004.05
2018-04-14T02:24:07.021Z,1004.05
2018-04-14T02:25:07.001Z,1004.07
2018-04-14T02:26:06.977Z,1004.09
2018-04-14T02:27:06.955Z,1004.08
2018-04-14T02:28:06.934Z,1004.08
2018-04-14T02:29:06.911Z,1004.09
2018-04-14T02:30:06.891Z,1004.1
2018-04-14T02:31:06.870Z,1004.07
2018-04-14T02:32:06.847Z,1004.06
2018-04-14T02:33:06.824Z,1004.05
2018-04-14T02:34:06.802Z,1004.06
2018-04-14T02:35:06.786Z,1004.06
2018-04-14T02:36:06.762Z,1004.04
2018-04-14T02:37:06.736Z,1004.04
2018-04-14T02:38:06.717Z,1004.06
2018-04-14T02:39:06.691Z,1004.08
2018-04-14T02:40:06.670Z,1004.11
2018-04-14T02:41:06.648Z,1004.16
2018-04-14T02:42:06.625Z,1004.12
2018-04-14T02:43:06.603Z,1004.12
2018-04-14T02:44:06.581Z,1004.07
2018-04-14T02:45:06.560Z,1004.11
2018-04-14T02:46:06.538Z,1004.09
2018-04-14T02:47:06.538Z,1004.15
2018-04-14T02:48:06.495Z,1004.13
2018-04-14T02:49:06.471Z,1004.14
2018-04-14T02:50:06.451Z,1004.1
2018-04-14T02:51:06.429Z,1004.08
2018-04-14T02:52:06.410Z,1004.07
2018-04-14T02:53:06.383Z,1004.08
2018-04-14T02:54:06.372Z,1004.07
2018-04-14T02:55:06.344Z,1004.08
2018-04-14T02:56:06.319Z,1004.09
2018-04-14T02:57:06.295Z,1004.08
2018-04-14T02:58:06.275Z,1004.12
2018-04-14T02:59:06.252Z,1004.12
2018-04-14T03:00:06.230Z,1004.13
2018-04-14T03:01:06.208Z,1004.13
2018-04-14T03:02:06.190Z,1004.14
2018-04-14T03:03:06.165Z,1004.16
2018-04-14T03:04:06.142Z,1004.14
2018-04-14T03:05:06.123Z,1004.12
2018-04-14T03:06:06.099Z,1004.08
2018-04-14T03:07:06.075Z,1004.1
2018-04-14T03:08:06.053Z,1004.07
2018-04-14T03:09:06.035Z,1004.1
2018-04-14T03:10:06.013Z,1004.08
2018-04-14T03:11:05.992Z,1004.08
2018-04-14T03:12:05.966Z,1004.1
2018-04-14T03:13:05.943Z,1004.08
2018-04-14T03:14:05.922Z,1004.12
2018-04-14T03:15:05.898Z,1004.15
2018-04-14T03:16:05.878Z,1004.13
2018-04-14T03:17:05.856Z,1004.13
2018-04-14T03:18:05.833Z,1004.12
2018-04-14T03:19:05.812Z,1004.14
2018-04-14T03:20:05.791Z,1004.09
2018-04-14T03:21:05.766Z,1004.12
2018-04-14T03:22:05.744Z,1004.14
2018-04-14T03:23:05.723Z,1004.14
2018-04-14T03:24:05.700Z,1004.16
2018-04-14T03:25:05.678Z,1004.21
2018-04-14T03:26:05.656Z,1004.18
2018-04-14T03:27:05.634Z,1004.21
2018-04-14T03:28:05.616Z,1004.21
2018-04-14T03:29:05.589Z,1004.25
2018-04-14T03:30:05.566Z,1004.28
2018-04-14T03:31:05.547Z,1004.29
2018-04-14T03:32:05.522Z,1004.34
2018-04-14T03:33:05.505Z,1004.34
2018-04-14T03:34:05.480Z,1004.3
2018-04-14T03:35:05.457Z,1004.33
2018-04-14T03:36:05.440Z,1004.3
2018-04-14T03:37:05.416Z,1004.29
2018-04-14T03:38:05.398Z,1004.28
2018-04-14T03:39:05.370Z,1004.25
2018-04-14T03:40:05.345Z,1004.25
2018-04-14T03:41:05.324Z,1004.25
2018-04-14T03:42:05.302Z,1004.24
2018-04-14T03:43:05.280Z,1004.24
2018-04-14T03:44:05.257Z,1004.25
2018-04-14T03:45:05.238Z,1004.26
2018-04-14T03:46:05.213Z,1004.24
2018-04-14T03:47:05.195Z,1004.27
2018-04-14T03:48:05.170Z,1004.28
2018-04-14T03:49:05.146Z,1004.3
2018-04-14T03:50:05.126Z,1004.36
2018-04-14T03:51:05.101Z,1004.32
2018-04-14T03:52:05.084Z,1004.35
2018-04-14T03:53:05.059Z,1004.39
2018-04-14T03:54:05.037Z,1004.36
2018-04-14T03:55:05.014Z,1004.39
2018-04-14T03:56:04.992Z,1004.44
2018-04-14T03:57:04.970Z,1004.4
2018-04-14T03:58:04.949Z,1004.43
2018-04-14T03:59:04.925Z,1004.46
2018-04-14T04:00:04.903Z,1004.43
2018-04-14T04:01:04.882Z,1004.43
2018-04-14T04:02:04.859Z,1004.37
2018-04-14T04:03:04.839Z,1004.37
2018-04-14T04:04:04.813Z,1004.36
2018-04-14T04:05:04.793Z,1004.36
2018-04-14T04:06:04.769Z,1004.38
2018-04-14T04:07:04.749Z,1004.36
2018-04-14T04:08:04.725Z,1004.39
2018-04-14T04:09:04.702Z,1004.35
2018-04-14T04:10:04.681Z,1004.43
2018-04-14T04:11:04.659Z,1004.46
2018-04-14T04:12:04.636Z,1004.42
2018-04-14T04:13:04.613Z,1004.45
2018-04-14T04:14:04.591Z,1004.47
2018-04-14T04:15:04.569Z,1004.49
2018-04-14T04:16:05.338Z,1004.53
2018-04-14T04:17:04.523Z,1004.57
2018-04-14T04:18:04.502Z,1004.61
2018-04-14T04:19:04.478Z,1004.63
2018-04-14T04:20:04.465Z,1004.62
2018-04-14T04:21:04.435Z,1004.66
2018-04-14T04:22:04.413Z,1004.72
2018-04-14T04:23:04.391Z,1004.72
2018-04-14T04:24:04.367Z,1004.69
2018-04-14T04:25:04.345Z,1004.72
2018-04-14T04:26:04.323Z,1004.71
2018-04-14T04:27:04.300Z,1004.75
2018-04-14T04:28:04.277Z,1004.71
2018-04-14T04:29:04.256Z,1004.77
2018-04-14T04:30:04.232Z,1004.78
2018-04-14T04:31:04.210Z,1004.79
2018-04-14T04:32:04.187Z,1004.82
2018-04-14T04:33:04.164Z,1004.86
2018-04-14T04:34:04.142Z,1004.84
2018-04-14T04:35:04.120Z,1004.85
2018-04-14T04:36:04.096Z,1004.84
2018-04-14T04:37:04.075Z,1004.81
2018-04-14T04:38:04.052Z,1004.86
2018-04-14T04:39:04.029Z,1004.88
2018-04-14T04:40:04.007Z,1004.9
2018-04-14T04:41:03.983Z,1004.93
2018-04-14T04:42:03.960Z,1004.92
2018-04-14T04:43:03.939Z,1004.92
2018-04-14T04:44:03.916Z,1004.97
2018-04-14T04:45:03.895Z,1004.96
2018-04-14T04:46:03.873Z,1005
2018-04-14T04:47:03.848Z,1004.99
2018-04-14T04:48:03.827Z,1005.01
2018-04-14T04:49:03.805Z,1005.04
2018-04-14T04:50:03.782Z,1005.01
2018-04-14T04:51:03.759Z,1005.06
2018-04-14T04:52:03.737Z,1005.08
2018-04-14T04:53:03.716Z,1005.12
2018-04-14T04:54:03.691Z,1005.15
2018-04-14T04:55:03.669Z,1005.16
2018-04-14T04:56:03.647Z,1005.2
2018-04-14T04:57:03.623Z,1005.22
2018-04-14T04:58:03.602Z,1005.19
2018-04-14T04:59:03.579Z,1005.23
2018-04-14T05:00:03.557Z,1005.21
2018-04-14T05:01:03.534Z,1005.27
2018-04-14T05:02:03.512Z,1005.27
2018-04-14T05:03:03.488Z,1005.27
2018-04-14T05:04:03.466Z,1005.33
2018-04-14T05:05:03.443Z,1005.38
2018-04-14T05:06:03.421Z,1005.37
2018-04-14T05:07:03.404Z,1005.39
2018-04-14T05:08:03.375Z,1005.36
2018-04-14T05:09:03.353Z,1005.37
2018-04-14T05:10:03.330Z,1005.37
2018-04-14T05:11:03.309Z,1005.38
2018-04-14T05:12:03.286Z,1005.42
2018-04-14T05:13:03.262Z,1005.39
2018-04-14T05:14:03.242Z,1005.37
2018-04-14T05:15:03.218Z,1005.32
2018-04-14T05:16:03.196Z,1005.36
2018-04-14T05:17:03.173Z,1005.33
2018-04-14T05:18:03.155Z,1005.36
2018-04-14T05:19:03.128Z,1005.45
2018-04-14T05:20:03.106Z,1005.49
2018-04-14T05:21:03.084Z,1005.53
2018-04-14T05:22:03.061Z,1005.56
2018-04-14T05:23:03.039Z,1005.6
2018-04-14T05:24:03.016Z,1005.59
2018-04-14T05:25:02.994Z,1005.62
2018-04-14T05:26:02.971Z,1005.6
2018-04-14T05:27:02.949Z,1005.65
2018-04-14T05:28:02.927Z,1005.67
2018-04-14T05:29:02.904Z,1005.7
2018-04-14T05:30:02.881Z,1005.72
2018-04-14T05:31:02.858Z,1005.72
2018-04-14T05:32:02.836Z,1005.72
2018-04-14T05:33:02.813Z,1005.71
2018-04-14T05:34:02.790Z,1005.71
2018-04-14T05:35:02.771Z,1005.71
2018-04-14T05:36:02.748Z,1005.7
2018-04-14T05:37:02.723Z,1005.7
2018-04-14T05:38:02.702Z,1005.65
2018-04-14T05:39:02.679Z,1005.64
2018-04-14T05:40:02.657Z,1005.67
2018-04-14T05:41:02.635Z,1005.71
2018-04-14T05:42:02.613Z,1005.68
2018-04-14T05:43:02.589Z,1005.72
2018-04-14T05:44:02.568Z,1005.7
2018-04-14T05:45:02.544Z,1005.78
2018-04-14T05:46:02.522Z,1005.77
2018-04-14T05:47:02.501Z,1005.84
2018-04-14T05:48:02.476Z,1005.87
2018-04-14T05:49:02.455Z,1005.81
2018-04-14T05:50:02.432Z,1005.79
2018-04-14T05:51:02.409Z,1005.73
2018-04-14T05:52:02.387Z,1005.74
2018-04-14T05:53:02.364Z,1005.74
2018-04-14T05:54:02.341Z,1005.75
2018-04-14T05:55:02.320Z,1005.76
2018-04-14T05:56:02.302Z,1005.76
2018-04-14T05:57:02.275Z,1005.79
2018-04-14T05:58:02.253Z,1005.83
2018-04-14T05:59:02.230Z,1005.79
2018-04-14T06:00:02.209Z,1005.83
2018-04-14T06:01:02.190Z,1005.83
2018-04-14T06:02:02.162Z,1005.86
2018-04-14T06:03:02.140Z,1005.86
2018-04-14T06:04:02.118Z,1005.86
2018-04-14T06:05:02.098Z,1005.83
2018-04-14T06:06:02.073Z,1005.84
2018-04-14T06:07:02.054Z,1005.83
2018-04-14T06:08:02.037Z,1005.8
2018-04-14T06:09:02.015Z,1005.78
2018-04-14T06:10:01.985Z,1005.83
2018-04-14T06:11:01.960Z,1005.85
2018-04-14T06:12:01.940Z,1005.84
2018-04-14T06:13:01.918Z,1005.87
2018-04-14T06:14:01.895Z,1005.87
2018-04-14T06:15:01.873Z,1005.85
2018-04-14T06:16:01.850Z,1005.87
2018-04-14T06:17:01.828Z,1005.89
2018-04-14T06:18:01.809Z,1005.93
2018-04-14T06:19:01.785Z,1005.97
2018-04-14T06:20:01.764Z,1005.96
2018-04-14T06:21:01.742Z,1006
2018-04-14T06:22:01.720Z,1006.07
2018-04-14T06:23:01.699Z,1006.09
2018-04-14T06:24:01.682Z,1006.14
2018-04-14T06:25:01.655Z,1006.13
2018-04-14T06:26:01.634Z,1006.13
2018-04-14T06:27:01.614Z,1006.14
2018-04-14T06:28:01.589Z,1006.11
2018-04-14T06:29:01.568Z,1006.12
2018-04-14T06:30:01.550Z,1006.13
2018-04-14T06:31:01.531Z,1006.12
2018-04-14T06:32:01.505Z,1006.15
2018-04-14T06:33:01.483Z,1006.16
2018-04-14T06:34:01.461Z,1006.17
2018-04-14T06:35:01.441Z,1006.13
2018-04-14T06:36:01.419Z,1006.15
2018-04-14T06:37:01.402Z,1006.19
2018-04-14T06:38:01.376Z,1006.19
2018-04-14T06:39:01.359Z,1006.15
2018-04-14T06:40:01.334Z,1006.18
2018-04-14T06:41:01.313Z,1006.2
2018-04-14T06:42:01.293Z,1006.21
2018-04-14T06:43:01.270Z,1006.22
2018-04-14T06:44:01.306Z,1006.25
2018-04-14T06:45:01.230Z,1006.3
2018-04-14T06:46:01.209Z,1006.36
2018-04-14T06:47:01.187Z,1006.37
2018-04-14T06:48:01.167Z,1006.39
2018-04-14T06:49:01.247Z,1006.4
2018-04-14T06:50:01.124Z,1006.44
2018-04-14T06:51:01.105Z,1006.43
2018-04-14T06:52:01.084Z,1006.44
2018-04-14T06:53:01.063Z,1006.51
2018-04-14T06:54:01.046Z,1006.46
2018-04-14T06:55:01.022Z,1006.51
2018-04-14T06:56:01.004Z,1006.5
2018-04-14T06:57:00.981Z,1006.5
2018-04-14T06:58:00.960Z,1006.53
2018-04-14T06:59:00.942Z,1006.53
2018-04-14T07:00:00.920Z,1006.56
2018-04-14T07:01:00.898Z,1006.56
2018-04-14T07:02:00.878Z,1006.54
2018-04-14T07:03:00.857Z,1006.51
2018-04-14T07:04:00.837Z,1006.51
2018-04-14T07:05:00.814Z,1006.54
2018-04-14T07:06:00.795Z,1006.51
2018-04-14T07:07:00.774Z,1006.53
2018-04-14T07:08:00.756Z,1006.54
2018-04-14T07:09:00.732Z,1006.55
2018-04-14T07:10:00.711Z,1006.56
2018-04-14T07:11:00.692Z,1006.5
2018-04-14T07:12:00.670Z,1006.5
2018-04-14T07:13:00.651Z,1006.51
2018-04-14T07:14:00.629Z,1006.51
2018-04-14T07:15:00.609Z,1006.57
2018-04-14T07:16:00.587Z,1006.57
2018-04-14T07:17:00.628Z,1006.52
2018-04-14T07:18:00.553Z,1006.56
2018-04-14T07:19:00.529Z,1006.55
2018-04-14T07:20:00.507Z,1006.63
2018-04-14T07:21:00.491Z,1006.64
2018-04-14T07:22:00.469Z,1006.67
2018-04-14T07:23:00.447Z,1006.69
2018-04-14T07:24:00.426Z,1006.72
2018-04-14T07:25:00.408Z,1006.77
2018-04-14T07:26:00.387Z,1006.74
2018-04-14T07:27:00.368Z,1006.74
2018-04-14T07:28:00.347Z,1006.77
2018-04-14T07:29:00.327Z,1006.81
2018-04-14T07:30:00.311Z,1006.81
2018-04-14T07:31:00.288Z,1006.82
2018-04-14T07:32:00.276Z,1006.81
2018-04-14T07:33:00.252Z,1006.85
2018-04-14T07:34:00.230Z,1006.84
2018-04-14T07:35:00.214Z,1006.85
2018-04-14T07:36:00.193Z,1006.89
2018-04-14T07:37:00.172Z,1006.86
2018-04-14T07:38:00.151Z,1006.9
2018-04-14T07:39:00.130Z,1006.89
2018-04-14T07:40:00.112Z,1006.92
2018-04-14T07:41:00.091Z,1006.92
2018-04-14T07:42:00.071Z,1006.95
2018-04-14T07:43:00.051Z,1006.96
2018-04-14T07:44:00.032Z,1006.98
2018-04-14T07:45:00.065Z,1007.02
2018-04-14T07:45:59.998Z,1007.06
2018-04-14T07:46:59.973Z,1007.02
2018-04-14T07:47:59.952Z,1007.09
2018-04-14T07:48:59.932Z,1007.07
2018-04-14T07:49:59.912Z,1007.11
2018-04-14T07:50:59.894Z,1007.16
2018-04-14T07:51:59.873Z,1007.13
2018-04-14T07:52:59.854Z,1007.08
2018-04-14T07:53:59.834Z,1007.18
2018-04-14T07:54:59.815Z,1007.18
2018-04-14T07:55:59.795Z,1007.15
2018-04-14T07:56:59.775Z,1007.19
2018-04-14T07:57:59.757Z,1007.24
2018-04-14T07:58:59.734Z,1007.26
2018-04-14T07:59:59.715Z,1007.23
2018-04-14T08:00:59.696Z,1007.25
2018-04-14T08:01:59.677Z,1007.22
2018-04-14T08:02:59.656Z,1007.12
2018-04-14T08:03:59.635Z,1007.18
2018-04-14T08:04:59.622Z,1007.19
2018-04-14T08:05:59.600Z,1007.16
2018-04-14T08:06:59.581Z,1007.19
2018-04-14T08:07:59.558Z,1007.24
2018-04-14T08:08:59.540Z,1007.23
2018-04-14T08:09:59.521Z,1007.19
2018-04-14T08:10:59.505Z,1007.18
2018-04-14T08:11:59.646Z,1007.2
2018-04-14T08:12:59.463Z,1007.16
2018-04-14T08:13:59.443Z,1007.17
2018-04-14T08:14:59.425Z,1007.17
2018-04-14T08:15:59.406Z,1007.19
2018-04-14T08:16:59.388Z,1007.22
2018-04-14T08:17:59.372Z,1007.27
2018-04-14T08:18:59.350Z,1007.29
2018-04-14T08:19:59.332Z,1007.26
2018-04-14T08:20:59.314Z,1007.29
2018-04-14T08:21:59.295Z,1007.28
2018-04-14T08:22:59.282Z,1007.29
2018-04-14T08:23:59.261Z,1007.29
2018-04-14T08:24:59.242Z,1007.25
2018-04-14T08:25:59.223Z,1007.29
2018-04-14T08:26:59.208Z,1007.34
2018-04-14T08:27:59.191Z,1007.3
2018-04-14T08:28:59.172Z,1007.32
2018-04-14T08:29:59.157Z,1007.31
2018-04-14T08:30:59.137Z,1007.34
2018-04-14T08:31:59.121Z,1007.38
2018-04-14T08:32:59.103Z,1007.31
2018-04-14T08:33:59.084Z,1007.34
2018-04-14T08:34:59.067Z,1007.31
2018-04-14T08:35:59.049Z,1007.33
2018-04-14T08:36:59.034Z,1007.36
2018-04-14T08:37:59.018Z,1007.38
2018-04-14T08:38:59.005Z,1007.33
2018-04-14T08:39:58.981Z,1007.3
2018-04-14T08:40:58.964Z,1007.34
2018-04-14T08:41:58.949Z,1007.34
2018-04-14T08:42:58.932Z,1007.28
2018-04-14T08:43:58.917Z,1007.28
2018-04-14T08:44:58.905Z,1007.31
2018-04-14T08:45:58.880Z,1007.33
2018-04-14T08:46:58.861Z,1007.35
2018-04-14T08:47:58.845Z,1007.35
2018-04-14T08:48:58.829Z,1007.33
2018-04-14T08:49:58.811Z,1007.32
2018-04-14T08:50:58.793Z,1007.29
2018-04-14T08:51:58.775Z,1007.3
2018-04-14T08:52:58.761Z,1007.31
2018-04-14T08:53:58.753Z,1007.31
2018-04-14T08:54:58.725Z,1007.36
2018-04-14T08:55:58.707Z,1007.32
2018-04-14T08:56:58.690Z,1007.32
2018-04-14T08:57:58.672Z,1007.3
2018-04-14T08:58:58.656Z,1007.31
2018-04-14T08:59:58.640Z,1007.31
2018-04-14T09:00:58.623Z,1007.28
2018-04-14T09:01:58.607Z,1007.27
2018-04-14T09:02:58.587Z,1007.29
2018-04-14T09:03:58.572Z,1007.3
2018-04-14T09:04:58.556Z,1007.34
2018-04-14T09:05:58.586Z,1007.33
2018-04-14T09:06:58.523Z,1007.35
2018-04-14T09:07:58.506Z,1007.37
2018-04-14T09:08:58.489Z,1007.33
2018-04-14T09:09:58.471Z,1007.31
2018-04-14T09:10:58.456Z,1007.3
2018-04-14T09:11:58.440Z,1007.31
2018-04-14T09:12:58.422Z,1007.35
2018-04-14T09:13:58.406Z,1007.35
2018-04-14T09:14:58.389Z,1007.4
2018-04-14T09:15:58.378Z,1007.39
2018-04-14T09:16:58.622Z,1007.36
2018-04-14T09:17:58.340Z,1007.43
2018-04-14T09:18:58.324Z,1007.37
2018-04-14T09:19:58.307Z,1007.36
2018-04-14T09:20:58.295Z,1007.42
2018-04-14T09:21:58.275Z,1007.41
2018-04-14T09:22:58.260Z,1007.41
2018-04-14T09:23:58.242Z,1007.4
2018-04-14T09:24:58.225Z,1007.33
2018-04-14T09:25:58.209Z,1007.34
2018-04-14T09:26:58.195Z,1007.4
2018-04-14T09:27:58.178Z,1007.39
2018-04-14T09:28:58.160Z,1007.39
2018-04-14T09:29:58.144Z,1007.4
2018-04-14T09:30:58.658Z,1007.42
2018-04-14T09:31:58.280Z,1007.39
2018-04-14T09:32:58.098Z,1007.4
2018-04-14T09:33:58.082Z,1007.37
2018-04-14T09:34:58.065Z,1007.41
2018-04-14T09:35:58.052Z,1007.41
2018-04-14T09:36:58.042Z,1007.39
2018-04-14T09:37:58.020Z,1007.42
2018-04-14T09:38:58.005Z,1007.41
2018-04-14T09:39:57.991Z,1007.37
2018-04-14T09:40:57.974Z,1007.41
2018-04-14T09:41:57.959Z,1007.43
2018-04-14T09:42:58.004Z,1007.41
2018-04-14T09:43:58.034Z,1007.46
2018-04-14T09:44:57.914Z,1007.48
2018-04-14T09:45:57.897Z,1007.48
2018-04-14T09:46:57.883Z,1007.48
2018-04-14T09:47:57.867Z,1007.44
2018-04-14T09:48:57.849Z,1007.53
2018-04-14T09:49:57.834Z,1007.47
2018-04-14T09:50:57.819Z,1007.47
2018-04-14T09:51:57.803Z,1007.45
2018-04-14T09:52:57.788Z,1007.45
2018-04-14T09:53:57.771Z,1007.48
2018-04-14T09:54:57.755Z,1007.52
2018-04-14T09:55:57.742Z,1007.5
2018-04-14T09:56:57.725Z,1007.48
2018-04-14T09:57:57.707Z,1007.46
2018-04-14T09:58:57.691Z,1007.5
2018-04-14T09:59:57.678Z,1007.45
2018-04-14T10:00:57.658Z,1007.48
2018-04-14T10:01:57.641Z,1007.48
2018-04-14T10:02:57.641Z,1007.51
2018-04-14T10:03:57.610Z,1007.53
2018-04-14T10:04:57.594Z,1007.53
2018-04-14T10:05:57.578Z,1007.58
2018-04-14T10:06:57.563Z,1007.54
2018-04-14T10:07:57.546Z,1007.51
2018-04-14T10:08:57.529Z,1007.52
2018-04-14T10:09:57.515Z,1007.52
2018-04-14T10:10:57.498Z,1007.61
2018-04-14T10:11:57.482Z,1007.47
2018-04-14T10:12:57.465Z,1007.57
2018-04-14T10:13:57.450Z,1007.46
2018-04-14T10:14:57.433Z,1007.52
2018-04-14T10:15:57.418Z,1007.53
2018-04-14T10:16:57.408Z,1007.53
2018-04-14T10:17:57.388Z,1007.49
2018-04-14T10:18:57.371Z,1007.5
2018-04-14T10:19:57.356Z,1007.53
2018-04-14T10:20:57.340Z,1007.54
2018-04-14T10:21:57.325Z,1007.54
2018-04-14T10:22:57.309Z,1007.57
2018-04-14T10:23:57.293Z,1007.58
2018-04-14T10:24:57.277Z,1007.56
2018-04-14T10:25:57.260Z,1007.52
2018-04-14T10:26:57.245Z,1007.59
2018-04-14T10:27:57.231Z,1007.56
2018-04-14T10:28:57.213Z,1007.54
2018-04-14T10:29:57.198Z,1007.55
2018-04-14T10:30:57.181Z,1007.49
2018-04-14T10:31:57.170Z,1007.6
2018-04-14T10:32:57.150Z,1007.58
2018-04-14T10:33:57.135Z,1007.54
2018-04-14T10:34:57.118Z,1007.53
2018-04-14T10:35:57.108Z,1007.53
2018-04-14T10:36:57.087Z,1007.45
2018-04-14T10:37:57.205Z,1007.44
2018-04-14T10:38:57.056Z,1007.42
2018-04-14T10:39:57.042Z,1007.4
2018-04-14T10:40:57.026Z,1007.45
2018-04-14T10:41:57.010Z,1007.47
2018-04-14T10:42:56.996Z,1007.49
2018-04-14T10:43:57.017Z,1007.5
2018-04-14T10:44:56.972Z,1007.54
2018-04-14T10:45:56.953Z,1007.52
2018-04-14T10:46:56.938Z,1007.48
2018-04-14T10:47:56.922Z,1007.54
2018-04-14T10:48:56.909Z,1007.54
2018-04-14T10:49:56.894Z,1007.5
2018-04-14T10:50:56.880Z,1007.5
2018-04-14T10:51:56.865Z,1007.51
2018-04-14T10:52:56.851Z,1007.52
2018-04-14T10:53:56.838Z,1007.47
2018-04-14T10:54:56.822Z,1007.52
2018-04-14T10:55:56.808Z,1007.49
2018-04-14T10:56:56.794Z,1007.46
2018-04-14T10:57:56.779Z,1007.51
2018-04-14T10:58:56.764Z,1007.47
2018-04-14T10:59:56.749Z,1007.46
2018-04-14T11:00:56.735Z,1007.43
2018-04-14T11:01:56.720Z,1007.52
2018-04-14T11:02:56.706Z,1007.45
2018-04-14T11:03:56.690Z,1007.43
2018-04-14T11:04:56.677Z,1007.43
2018-04-14T11:05:56.661Z,1007.43
2018-04-14T11:06:56.650Z,1007.4
2018-04-14T11:07:56.633Z,1007.4
2018-04-14T11:08:56.619Z,1007.38
2018-04-14T11:09:56.603Z,1007.39
2018-04-14T11:10:56.590Z,1007.38
2018-04-14T11:11:56.575Z,1007.36
2018-04-14T11:12:56.560Z,1007.31
2018-04-14T11:13:56.583Z,1007.37
2018-04-14T11:14:56.532Z,1007.42
2018-04-14T11:15:56.520Z,1007.39
2018-04-14T11:16:56.504Z,1007.41
2018-04-14T11:17:56.490Z,1007.4
2018-04-14T11:18:56.478Z,1007.41
2018-04-14T11:19:56.464Z,1007.36
2018-04-14T11:20:56.453Z,1007.39
2018-04-14T11:21:56.435Z,1007.4
2018-04-14T11:22:56.421Z,1007.32
2018-04-14T11:23:56.408Z,1007.39
2018-04-14T11:24:56.391Z,1007.39
2018-04-14T11:25:56.377Z,1007.43
2018-04-14T11:26:56.366Z,1007.49
2018-04-14T11:27:56.348Z,1007.41
2018-04-14T11:28:56.332Z,1007.45
2018-04-14T11:29:56.318Z,1007.46
2018-04-14T11:30:56.304Z,1007.57
2018-04-14T11:31:56.287Z,1007.52
2018-04-14T11:32:56.271Z,1007.51
2018-04-14T11:33:56.258Z,1007.5
2018-04-14T11:34:56.242Z,1007.42
2018-04-14T11:35:56.226Z,1007.4
2018-04-14T11:36:56.211Z,1007.48
2018-04-14T11:37:56.196Z,1007.46
2018-04-14T11:38:56.182Z,1007.41
2018-04-14T11:39:56.169Z,1007.41
2018-04-14T11:40:56.153Z,1007.44
2018-04-14T11:41:56.139Z,1007.35
2018-04-14T11:42:56.125Z,1007.41
2018-04-14T11:43:56.111Z,1007.4
2018-04-14T11:44:56.098Z,1007.41
2018-04-14T11:45:56.084Z,1007.45
2018-04-14T11:46:56.072Z,1007.5
2018-04-14T11:47:56.060Z,1007.46
2018-04-14T11:48:56.046Z,1007.44
2018-04-14T11:49:56.032Z,1007.45
2018-04-14T11:50:56.071Z,1007.41
2018-04-14T11:51:56.008Z,1007.44
2018-04-14T11:52:55.996Z,1007.42
2018-04-14T11:53:55.982Z,1007.4
2018-04-14T11:54:55.970Z,1007.41
2018-04-14T11:55:55.956Z,1007.37
2018-04-14T11:56:55.943Z,1007.39
2018-04-14T11:57:55.929Z,1007.44
2018-04-14T11:58:55.916Z,1007.5
2018-04-14T11:59:55.904Z,1007.49
2018-04-14T12:00:55.892Z,1007.52
2018-04-14T12:01:55.879Z,1007.5
2018-04-14T12:02:55.866Z,1007.47
2018-04-14T12:03:55.855Z,1007.42
2018-04-14T12:04:55.839Z,1007.52
2018-04-14T12:05:55.826Z,1007.53
2018-04-14T12:06:55.813Z,1007.45
2018-04-14T12:07:56.075Z,1007.41